CGMPW KISP-KLGA
Flight info
| Callsign | CGMPW |
|---|---|
| Flight time | 0h 27m |
| Altitude | 3000 |
| Route | DCT |
| Aircraft | DA62/L-VGD/A |
Departure
| Time | 2026-04-20 17:45 |
|---|---|
| Airport | Long Island MacArthur Airport (KISP) |
Arrival
| Time | 2026-04-20 18:12 |
|---|---|
| Airport | LaGuardia Airport (KLGA) |
| Time | Latitude | Longitude | Altitude | Speed | Heading |
|---|---|---|---|---|---|
| 2026-04-20 17:42 | 40.80202 | -73.09482 | 85 ft | 0 kts | 225° |
| 2026-04-20 17:43 | 40.80128 | -73.09585 | 87 ft | 52 kts | 226° |
| 2026-04-20 17:44 | 40.79729 | -73.10142 | 133 ft | 104 kts | 226° |
| 2026-04-20 17:44 | 40.79105 | -73.10826 | 285 ft | 128 kts | 218° |
| 2026-04-20 17:44 | 40.78337 | -73.11595 | 410 ft | 146 kts | 218° |
| 2026-04-20 17:44 | 40.77510 | -73.12448 | 560 ft | 154 kts | 219° |
| 2026-04-20 17:45 | 40.76586 | -73.13155 | 707 ft | 157 kts | 205° |
| 2026-04-20 17:45 | 40.75581 | -73.13753 | 864 ft | 159 kts | 205° |
| 2026-04-20 17:45 | 40.74566 | -73.14357 | 997 ft | 162 kts | 205° |
| 2026-04-20 17:45 | 40.73509 | -73.14986 | 1004 ft | 169 kts | 205° |
| 2026-04-20 17:46 | 40.72424 | -73.15633 | 1009 ft | 173 kts | 205° |
| 2026-04-20 17:46 | 40.71321 | -73.16289 | 1010 ft | 174 kts | 205° |
| 2026-04-20 17:46 | 40.70212 | -73.16949 | 1011 ft | 176 kts | 205° |
| 2026-04-20 17:46 | 40.69092 | -73.17617 | 1007 ft | 176 kts | 205° |
| 2026-04-20 17:47 | 40.67973 | -73.18284 | 1009 ft | 176 kts | 206° |
| 2026-04-20 17:47 | 40.67007 | -73.19241 | 1010 ft | 174 kts | 226° |
| 2026-04-20 17:47 | 40.66184 | -73.20376 | 1006 ft | 171 kts | 228° |
| 2026-04-20 17:47 | 40.65480 | -73.21597 | 1002 ft | 165 kts | 237° |
| 2026-04-20 17:48 | 40.64848 | -73.22850 | 994 ft | 163 kts | 237° |
| 2026-04-20 17:48 | 40.64224 | -73.24089 | 990 ft | 161 kts | 237° |
| 2026-04-20 17:48 | 40.63606 | -73.25317 | 994 ft | 160 kts | 237° |
| 2026-04-20 17:48 | 40.62990 | -73.26541 | 993 ft | 160 kts | 237° |
| 2026-04-20 17:49 | 40.62374 | -73.27768 | 991 ft | 160 kts | 237° |
| 2026-04-20 17:49 | 40.61837 | -73.28837 | 992 ft | 161 kts | 237° |
| 2026-04-20 17:49 | 40.61229 | -73.30073 | 993 ft | 160 kts | 242° |
| 2026-04-20 17:49 | 40.60761 | -73.31396 | 990 ft | 159 kts | 247° |
| 2026-04-20 17:50 | 40.60320 | -73.32736 | 989 ft | 159 kts | 247° |
| 2026-04-20 17:50 | 40.59906 | -73.34069 | 993 ft | 159 kts | 253° |
| 2026-04-20 17:50 | 40.59636 | -73.35479 | 993 ft | 159 kts | 257° |
| 2026-04-20 17:50 | 40.59381 | -73.36899 | 991 ft | 159 kts | 257° |
| 2026-04-20 17:51 | 40.59128 | -73.38316 | 991 ft | 159 kts | 257° |
| 2026-04-20 17:51 | 40.58874 | -73.39739 | 992 ft | 159 kts | 257° |
| 2026-04-20 17:51 | 40.58623 | -73.41140 | 994 ft | 159 kts | 257° |
| 2026-04-20 17:51 | 40.58370 | -73.42563 | 992 ft | 159 kts | 257° |
| 2026-04-20 17:52 | 40.58118 | -73.43983 | 992 ft | 160 kts | 257° |
| 2026-04-20 17:52 | 40.57926 | -73.45420 | 994 ft | 159 kts | 266° |
| 2026-04-20 17:52 | 40.57864 | -73.46873 | 994 ft | 159 kts | 267° |
| 2026-04-20 17:52 | 40.57804 | -73.48326 | 994 ft | 159 kts | 267° |
| 2026-04-20 17:53 | 40.57746 | -73.49778 | 995 ft | 159 kts | 267° |
| 2026-04-20 17:53 | 40.57689 | -73.51214 | 994 ft | 159 kts | 267° |
| 2026-04-20 17:53 | 40.57631 | -73.52671 | 995 ft | 159 kts | 267° |
| 2026-04-20 17:53 | 40.57572 | -73.54128 | 995 ft | 159 kts | 267° |
| 2026-04-20 17:54 | 40.57515 | -73.55588 | 995 ft | 160 kts | 267° |
| 2026-04-20 17:54 | 40.57457 | -73.57048 | 996 ft | 160 kts | 267° |
| 2026-04-20 17:54 | 40.57399 | -73.58507 | 996 ft | 160 kts | 268° |
| 2026-04-20 17:54 | 40.57342 | -73.59967 | 995 ft | 160 kts | 267° |
| 2026-04-20 17:55 | 40.57284 | -73.61427 | 995 ft | 159 kts | 267° |
| 2026-04-20 17:55 | 40.57226 | -73.62884 | 995 ft | 159 kts | 267° |
| 2026-04-20 17:55 | 40.57170 | -73.64322 | 995 ft | 159 kts | 267° |
| 2026-04-20 17:55 | 40.57113 | -73.65781 | 995 ft | 159 kts | 268° |
| 2026-04-20 17:56 | 40.57057 | -73.67240 | 995 ft | 160 kts | 268° |
| 2026-04-20 17:56 | 40.57001 | -73.68697 | 995 ft | 160 kts | 267° |
| 2026-04-20 17:56 | 40.56964 | -73.69662 | 995 ft | 160 kts | 268° |
| 2026-04-20 17:56 | 40.56907 | -73.71121 | 994 ft | 159 kts | 267° |
| 2026-04-20 17:57 | 40.56851 | -73.72577 | 994 ft | 159 kts | 268° |
| 2026-04-20 17:57 | 40.56793 | -73.74035 | 994 ft | 159 kts | 268° |
| 2026-04-20 17:57 | 40.56737 | -73.75490 | 994 ft | 159 kts | 267° |
| 2026-04-20 17:57 | 40.56681 | -73.76947 | 994 ft | 160 kts | 268° |
| 2026-04-20 17:58 | 40.56624 | -73.78405 | 994 ft | 160 kts | 268° |
| 2026-04-20 17:58 | 40.56569 | -73.79863 | 994 ft | 160 kts | 268° |
| 2026-04-20 17:58 | 40.56513 | -73.81322 | 994 ft | 160 kts | 268° |
| 2026-04-20 17:58 | 40.56457 | -73.82777 | 993 ft | 159 kts | 268° |
| 2026-04-20 17:59 | 40.56402 | -73.84236 | 993 ft | 159 kts | 268° |
| 2026-04-20 17:59 | 40.56346 | -73.85692 | 993 ft | 159 kts | 268° |
| 2026-04-20 17:59 | 40.56291 | -73.87146 | 992 ft | 159 kts | 268° |
| 2026-04-20 17:59 | 40.56235 | -73.88602 | 997 ft | 160 kts | 268° |
| 2026-04-20 18:00 | 40.56182 | -73.90051 | 995 ft | 161 kts | 268° |
| 2026-04-20 18:00 | 40.56126 | -73.91525 | 999 ft | 162 kts | 268° |
| 2026-04-20 18:00 | 40.56071 | -73.93023 | 999 ft | 162 kts | 268° |
| 2026-04-20 18:00 | 40.56016 | -73.94484 | 998 ft | 161 kts | 268° |
| 2026-04-20 18:01 | 40.55960 | -73.95952 | 996 ft | 160 kts | 268° |
| 2026-04-20 18:01 | 40.55905 | -73.97416 | 995 ft | 160 kts | 268° |
| 2026-04-20 18:01 | 40.55850 | -73.98876 | 994 ft | 160 kts | 268° |
| 2026-04-20 18:01 | 40.55796 | -74.00332 | 993 ft | 159 kts | 268° |
| 2026-04-20 18:02 | 40.55742 | -74.01788 | 992 ft | 159 kts | 268° |
| 2026-04-20 18:02 | 40.55689 | -74.03244 | 992 ft | 159 kts | 268° |
| 2026-04-20 18:02 | 40.55643 | -74.04703 | 991 ft | 159 kts | 272° |
| 2026-04-20 18:02 | 40.55873 | -74.06117 | 997 ft | 159 kts | 287° |
| 2026-04-20 18:03 | 40.56186 | -74.07512 | 997 ft | 159 kts | 287° |
| 2026-04-20 18:03 | 40.56497 | -74.08891 | 998 ft | 159 kts | 287° |
| 2026-04-20 18:03 | 40.56811 | -74.10288 | 1000 ft | 160 kts | 287° |
| 2026-04-20 18:03 | 40.57129 | -74.11697 | 1001 ft | 161 kts | 287° |
| 2026-04-20 18:04 | 40.57565 | -74.13030 | 1007 ft | 160 kts | 313° |
| 2026-04-20 18:04 | 40.58554 | -74.13600 | 1013 ft | 160 kts | 1° |
| 2026-04-20 18:04 | 40.59649 | -74.13380 | 1088 ft | 155 kts | 12° |
| 2026-04-20 18:04 | 40.60581 | -74.12746 | 1245 ft | 151 kts | 37° |
| 2026-04-20 18:05 | 40.62254 | -74.11046 | 1397 ft | 155 kts | 38° |
| 2026-04-20 18:05 | 40.63034 | -74.10044 | 1410 ft | 159 kts | 49° |
| 2026-04-20 18:05 | 40.63761 | -74.08953 | 1410 ft | 161 kts | 49° |
| 2026-04-20 18:06 | 40.64451 | -74.07790 | 1409 ft | 162 kts | 56° |
| 2026-04-20 18:06 | 40.65090 | -74.06523 | 1310 ft | 168 kts | 57° |
| 2026-04-20 18:06 | 40.65728 | -74.05245 | 1219 ft | 170 kts | 57° |
| 2026-04-20 18:06 | 40.66379 | -74.03941 | 1121 ft | 171 kts | 57° |
| 2026-04-20 18:07 | 40.67035 | -74.02628 | 1030 ft | 172 kts | 57° |
| 2026-04-20 18:07 | 40.67688 | -74.01322 | 1008 ft | 169 kts | 56° |
| 2026-04-20 18:07 | 40.68332 | -74.00034 | 1006 ft | 168 kts | 57° |
| 2026-04-20 18:07 | 40.68971 | -73.98758 | 1002 ft | 166 kts | 57° |
| 2026-04-20 18:08 | 40.69607 | -73.97488 | 999 ft | 165 kts | 57° |
| 2026-04-20 18:08 | 40.70173 | -73.96176 | 999 ft | 165 kts | 65° |
| 2026-04-20 18:08 | 40.70637 | -73.94821 | 998 ft | 158 kts | 68° |
| 2026-04-20 18:08 | 40.71005 | -73.93508 | 987 ft | 152 kts | 70° |
| 2026-04-20 18:09 | 40.71356 | -73.92213 | 990 ft | 147 kts | 70° |
| 2026-04-20 18:09 | 40.71686 | -73.91000 | 987 ft | 135 kts | 70° |
| 2026-04-20 18:09 | 40.71993 | -73.89860 | 989 ft | 129 kts | 70° |
| 2026-04-20 18:09 | 40.72289 | -73.88772 | 977 ft | 125 kts | 70° |
| 2026-04-20 18:10 | 40.72590 | -73.87663 | 842 ft | 131 kts | 70° |
| 2026-04-20 18:10 | 40.73013 | -73.86600 | 715 ft | 132 kts | 47° |
| 2026-04-20 18:10 | 40.73715 | -73.85858 | 639 ft | 127 kts | 34° |
| 2026-04-20 18:10 | 40.74450 | -73.85217 | 513 ft | 126 kts | 32° |
| 2026-04-20 18:11 | 40.75216 | -73.84641 | 426 ft | 125 kts | 27° |
| 2026-04-20 18:11 | 40.76041 | -73.84404 | 308 ft | 123 kts | 354° |
| 2026-04-20 18:11 | 40.76804 | -73.84886 | 178 ft | 125 kts | 310° |
| 2026-04-20 18:11 | 40.77252 | -73.85816 | 11 ft | 107 kts | 301° |
| 2026-04-20 18:12 | 40.77523 | -73.86380 | 8 ft | 49 kts | 301° |
| 2026-04-20 18:12 | 40.77674 | -73.86729 | 8 ft | 38 kts | 283° |